Time;durP1;ratioP1;P1;durP2;ratioP2;P2;SDS_P1;SDS_P2;PMS_P1;PMS_P2;Temp;Humidity;BMP_temperature;BMP_pressure;BME280_temperature;BME280_humidity;BME280_pressure;Samples;Min_cycle;Max_cycle;Signal;HPM_P1;HPM_P2
2023/03/22 00:01:59;;;;;;;30.30;15.30;;;;;;;6.24;80.20;100678.84;4948518;28;20048;-67
2023/03/22 00:04:30;;;;;;;28.42;15.02;;;;;;;6.38;79.50;100672.03;4948890;28;20060;-66
2023/03/22 00:07:00;;;;;;;22.33;11.88;;;;;;;6.70;77.46;100674.00;4946113;28;20051;-67
2023/03/22 00:09:31;;;;;;;20.70;9.70;;;;;;;6.90;76.34;100672.38;4942589;28;20385;-68
2023/03/22 00:12:03;;;;;;;17.23;9.05;;;;;;;7.25;75.16;100674.25;4944865;28;20052;-68
2023/03/22 00:14:34;;;;;;;19.48;8.93;;;;;;;7.35;73.44;100655.22;4949039;28;20066;-68
2023/03/22 00:17:05;;;;;;;21.95;7.93;;;;;;;7.48;72.73;100670.84;4949478;28;20050;-68
2023/03/22 00:19:36;;;;;;;19.95;7.80;;;;;;;7.61;72.23;100664.81;4948479;28;20241;-66
2023/03/22 00:22:07;;;;;;;15.18;7.18;;;;;;;7.65;71.70;100656.16;4949544;28;20138;-67
2023/03/22 00:24:37;;;;;;;24.23;7.90;;;;;;;7.81;70.53;100658.78;4948142;28;20051;-71
2023/03/22 00:27:10;;;;;;;14.88;7.60;;;;;;;7.84;70.42;100664.00;4948102;28;20055;-70
2023/03/22 00:29:40;;;;;;;19.02;7.40;;;;;;;7.92;70.71;100663.16;4954650;28;20055;-71
2023/03/22 00:32:10;;;;;;;16.15;7.47;;;;;;;7.98;69.89;100657.06;4959781;28;20052;-70
2023/03/22 00:34:41;;;;;;;13.57;6.90;;;;;;;8.02;69.45;100653.63;4948534;28;20039;-67
2023/03/22 00:37:11;;;;;;;20.15;6.90;;;;;;;8.12;69.43;100654.47;4947376;28;20044;-66
2023/03/22 00:39:41;;;;;;;12.80;6.25;;;;;;;8.21;69.31;100665.75;4953623;28;20049;-70
2023/03/22 00:42:14;;;;;;;13.73;6.28;;;;;;;8.30;68.81;100674.44;4950582;28;20052;-70
2023/03/22 00:44:44;;;;;;;15.10;5.60;;;;;;;8.40;68.40;100665.78;4944260;28;20070;-70
2023/03/22 00:47:15;;;;;;;14.43;5.28;;;;;;;8.57;68.26;100664.00;4944620;28;20351;-70
2023/03/22 00:49:45;;;;;;;12.63;5.55;;;;;;;8.80;67.44;100655.28;4944676;28;20051;-72
2023/03/22 00:52:16;;;;;;;15.88;6.35;;;;;;;8.86;67.30;100650.03;4945012;28;20043;-71
2023/03/22 00:54:46;;;;;;;12.68;5.78;;;;;;;9.15;65.33;100672.53;4948946;28;20048;-69
2023/03/22 00:57:19;;;;;;;11.98;5.63;;;;;;;9.01;65.03;100655.22;4948787;28;20054;-71
2023/03/22 00:59:51;;;;;;;10.35;5.72;;;;;;;9.11;64.72;100662.97;4948342;28;20112;-68
2023/03/22 01:02:28;;;;;;;17.33;6.05;;;;;;;9.03;64.42;100674.31;4944955;27;20436;-72
2023/03/22 01:04:58;;;;;;;15.90;6.28;;;;;;;8.90;65.01;100676.97;4970469;27;20050;-72
2023/03/22 01:07:29;;;;;;;15.63;6.03;;;;;;;8.77;65.00;100686.56;4970987;27;20078;-71
2023/03/22 01:10:00;;;;;;;15.07;6.47;;;;;;;8.55;65.15;100676.16;4969546;27;20058;-72
2023/03/22 01:12:32;;;;;;;11.55;5.55;;;;;;;8.34;66.00;100670.97;4967827;27;20051;-70
2023/03/22 01:15:02;;;;;;;15.27;5.80;;;;;;;8.31;66.23;100676.16;4961824;27;21015;-68
2023/03/22 01:17:33;;;;;;;11.32;5.72;;;;;;;8.39;66.35;100675.31;4980135;27;20049;-71
2023/03/22 01:20:05;;;;;;;21.75;6.00;;;;;;;8.39;66.37;100669.22;4967502;27;20061;-72
2023/03/22 01:22:36;;;;;;;19.25;6.18;;;;;;;8.00;66.42;100613.69;4967262;27;20059;-71
2023/03/22 01:25:07;;;;;;;14.88;6.25;;;;;;;8.33;66.42;100670.06;4945890;28;20387;-71
2023/03/22 01:27:39;;;;;;;14.13;6.15;;;;;;;8.35;66.18;100651.84;4945281;28;20482;-70
2023/03/22 01:30:11;;;;;;;13.20;6.28;;;;;;;8.43;66.29;100650.13;4947403;28;20055;-72
2023/03/22 01:32:41;;;;;;;12.85;5.63;;;;;;;8.70;66.25;100643.16;4954705;27;20052;-71
2023/03/22 01:35:12;;;;;;;9.40;5.32;;;;;;;8.88;65.61;100643.09;4965043;27;20336;-71
2023/03/22 01:37:43;;;;;;;11.55;5.72;;;;;;;8.93;65.66;100636.13;4964266;27;20478;-72
2023/03/22 01:40:15;;;;;;;13.32;6.90;;;;;;;8.94;65.52;100614.41;4967857;27;20050;-73
2023/03/22 01:42:47;;;;;;;17.95;6.60;;;;;;;9.22;64.74;100638.59;4967214;27;20165;-71
2023/03/22 01:45:40;;;;;;;12.98;6.22;;;;;;;9.28;64.39;100638.59;4966751;27;20130;-75
2023/03/22 01:48:24;;;;;;;10.93;6.15;;;;;;;9.26;64.25;100629.00;4956243;27;20099;-76
2023/03/22 01:51:03;;;;;;;14.55;7.13;;;;;;;9.38;63.70;100644.59;4955924;27;20047;-70
2023/03/22 01:53:37;;;;;;;18.10;6.63;;;;;;;9.38;63.61;100623.72;4956623;27;20047;-71
2023/03/22 01:56:08;;;;;;;16.35;6.50;;;;;;;9.42;63.48;100646.31;4965929;27;20057;-68
2023/03/22 01:58:42;;;;;;;18.95;6.85;;;;;;;9.19;64.01;100645.59;4964624;27;20051;-72
2023/03/22 02:01:12;;;;;;;13.40;6.68;;;;;;;8.92;64.74;100650.03;4940652;28;20048;-74
2023/03/22 02:03:49;;;;;;;18.02;6.95;;;;;;;8.78;65.35;100649.19;4947197;28;20058;-67
2023/03/22 02:06:20;;;;;;;15.57;7.57;;;;;;;8.77;65.35;100660.50;4944991;28;20520;-74
2023/03/22 02:08:57;;;;;;;18.05;7.50;;;;;;;8.70;66.10;100643.16;4945711;28;20063;-70
2023/03/22 02:11:32;;;;;;;20.88;8.98;;;;;;;8.74;65.95;100650.09;4939223;28;20445;-76
2023/03/22 02:14:21;;;;;;;16.75;7.88;;;;;;;8.61;66.37;100665.75;4942630;28;20086;-72
2023/03/22 02:17:05;;;;;;;20.35;9.10;;;;;;;8.31;66.48;100608.47;4941624;27;20079;-70
2023/03/22 02:20:19;;;;;;;17.75;8.60;;;;;;;8.91;66.23;100648.31;4940244;27;20035;-74
2023/03/22 02:23:34;;;;;;;23.90;8.07;;;;;;;8.96;65.86;100646.56;4900485;27;20146;-74
2023/03/22 02:26:38;;;;;;;19.10;8.52;;;;;;;9.15;65.63;100636.03;4894768;27;20047;-73
2023/03/22 02:29:18;;;;;;;21.35;8.48;;;;;;;9.35;64.90;100634.19;4937820;27;20043;-73
2023/03/22 02:32:04;;;;;;;21.80;8.90;;;;;;;9.57;64.45;100628.84;4936053;28;20058;-71
2023/03/22 02:34:54;;;;;;;21.60;8.90;;;;;;;9.77;63.87;100624.38;4936530;27;20051;-64
2023/03/22 02:37:52;;;;;;;18.42;8.73;;;;;;;9.89;62.96;100624.28;4944293;27;20043;-72
2023/03/22 02:40:28;;;;;;;28.30;9.27;;;;;;;9.79;62.60;100611.31;4940286;27;20496;-73
2023/03/22 02:43:04;;;;;;;24.20;7.97;;;;;;;9.94;62.52;100619.03;4971884;27;20054;-74
2023/03/22 02:45:42;;;;;;;21.67;8.65;;;;;;;9.86;62.39;100606.03;4960314;27;20039;-73
2023/03/22 02:48:17;;;;;;;20.80;7.75;;;;;;;9.93;61.92;100618.16;4967121;27;20056;-68
2023/03/22 02:50:54;;;;;;;16.52;8.48;;;;;;;9.91;61.57;100624.28;4951547;27;20353;-73
2023/03/22 02:53:30;;;;;;;27.33;9.10;;;;;;;9.99;61.76;100632.91;4953783;27;20862;-69
2023/03/22 02:56:04;;;;;;;15.95;8.18;;;;;;;10.03;61.22;100624.16;4963938;27;20073;-68
2023/03/22 02:58:44;;;;;;;18.48;7.45;;;;;;;10.04;61.23;100614.59;4954400;27;20049;-67
2023/03/22 03:01:20;;;;;;;23.83;9.52;;;;;;;10.00;61.39;100607.66;4954649;27;20045;-67
2023/03/22 03:03:53;;;;;;;20.15;9.68;;;;;;;9.93;61.10;100618.16;4965288;27;20550;-67
2023/03/22 03:06:27;;;;;;;19.38;9.52;;;;;;;9.90;61.17;100612.09;4955125;27;20343;-69
2023/03/22 03:09:01;;;;;;;24.65;9.82;;;;;;;10.01;61.10;100617.19;4965331;27;20116;-69
2023/03/22 03:11:33;;;;;;;30.50;9.65;;;;;;;9.99;60.72;100611.16;4946173;27;20076;-67
2023/03/22 03:14:04;;;;;;;17.85;9.15;;;;;;;10.06;60.16;100610.19;4946830;27;20047;-67
2023/03/22 03:16:35;;;;;;;22.85;8.70;;;;;;;10.01;60.16;100578.03;4946324;28;20040;-71
2023/03/22 03:19:15;;;;;;;21.23;8.18;;;;;;;9.77;59.82;100519.97;4947610;27;20051;-72
2023/03/22 03:21:51;;;;;;;;;;;;;;;10.35;59.77;100610.81;4937016;28;20610;-66
2023/03/22 03:24:28;;;;;;;16.67;7.60;;;;;;;10.40;59.22;100609.94;4945535;27;19944;-70
2023/03/22 03:27:05;;;;;;;18.77;8.70;;;;;;;10.39;59.14;100616.03;4948533;28;20046;-66
2023/03/22 03:29:41;;;;;;;22.33;7.95;;;;;;;10.38;59.32;100603.84;4939244;27;20047;-70
2023/03/22 03:32:20;;;;;;;20.15;7.90;;;;;;;10.36;59.26;100602.13;4951855;27;20121;-70
2023/03/22 03:34:56;;;;;;;21.73;7.88;;;;;;;10.43;59.36;100607.28;4948931;28;20112;-67
2023/03/22 03:37:31;;;;;;;17.58;7.55;;;;;;;10.47;58.95;100603.75;4939080;28;20051;-71
2023/03/22 03:40:09;;;;;;;22.65;7.40;;;;;;;10.48;58.72;100605.47;4943742;28;20073;-68
2023/03/22 03:42:48;;;;;;;18.17;7.82;;;;;;;10.56;59.03;100614.13;4944784;28;20466;-68
2023/03/22 03:45:20;;;;;;;25.50;7.60;;;;;;;10.63;58.89;100613.16;4935426;28;20061;-72
2023/03/22 03:47:55;;;;;;;20.73;8.57;;;;;;;10.60;58.18;100605.34;4944426;28;20053;-71
2023/03/22 03:50:27;;;;;;;17.45;8.20;;;;;;;10.56;58.40;100603.69;4932212;28;20470;-65
2023/03/22 03:52:58;;;;;;;25.77;8.68;;;;;;;10.55;58.40;100612.38;4962918;27;20100;-72
2023/03/22 03:55:29;;;;;;;16.55;8.45;;;;;;;10.55;58.46;100612.38;4967785;27;20042;-71
2023/03/22 03:58:01;;;;;;;18.33;8.57;;;;;;;10.45;58.29;100615.97;4967872;27;20043;-70
2023/03/22 04:00:32;;;;;;;21.52;8.70;;;;;;;10.45;58.47;100615.97;4963209;27;20064;-71
2023/03/22 04:03:02;;;;;;;21.77;8.40;;;;;;;10.50;58.52;100614.19;4972034;27;20047;-68
2023/03/22 04:05:33;;;;;;;20.20;8.05;;;;;;;10.58;58.75;100614.94;4950924;28;20233;-66
2023/03/22 04:08:03;;;;;;;28.52;8.45;;;;;;;10.70;58.72;100603.50;4945317;28;20155;-71
2023/03/22 04:10:34;;;;;;;22.90;8.73;;;;;;;10.77;58.35;100600.81;4942169;28;20096;-67
2023/03/22 04:13:06;;;;;;;24.13;8.50;;;;;;;10.86;58.33;100596.34;4948154;28;20046;-69
2023/03/22 04:15:40;;;;;;;18.70;8.85;;;;;;;10.89;57.83;100602.41;4948049;28;20505;-66
2023/03/22 04:18:11;;;;;;;22.63;8.18;;;;;;;10.93;58.07;100592.75;4947820;28;20591;-70
2023/03/22 04:20:41;;;;;;;16.20;7.40;;;;;;;11.05;57.99;100582.16;4947055;28;20052;-69
2023/03/22 04:23:12;;;;;;;18.45;7.85;;;;;;;11.12;57.38;100573.34;4955786;28;20053;-68
2023/03/22 04:25:48;;;;;;;18.38;7.15;;;;;;;11.08;57.61;100555.94;4953440;28;20488;-69
2023/03/22 04:28:20;;;;;;;23.25;7.88;;;;;;;11.15;57.24;100562.84;4950764;27;20047;-72
2023/03/22 04:30:51;;;;;;;20.70;7.30;;;;;;;11.16;57.31;100564.59;4953594;28;20063;-70
2023/03/22 04:33:21;;;;;;;14.10;7.18;;;;;;;10.99;56.86;100536.03;4950083;28;20115;-70
2023/03/22 04:35:56;;;;;;;17.75;7.60;;;;;;;11.22;56.94;100564.47;4958486;28;20452;-69
2023/03/22 04:38:26;;;;;;;15.57;6.68;;;;;;;11.16;56.19;100548.03;4951304;28;20051;-68
2023/03/22 04:40:57;;;;;;;17.92;8.68;;;;;;;11.15;56.81;100560.22;4948926;28;20044;-71
2023/03/22 04:43:29;;;;;;;18.27;7.57;;;;;;;11.20;56.74;100553.16;4949875;28;20043;-70
2023/03/22 04:46:00;;;;;;;22.92;7.03;;;;;;;11.17;56.56;100549.75;4949856;28;20051;-71
2023/03/22 04:48:31;;;;;;;15.18;7.43;;;;;;;10.78;56.58;100490.16;4959482;27;20047;-68
2023/03/22 04:51:02;;;;;;;15.75;7.68;;;;;;;11.00;56.64;100544.75;4968826;27;20055;-69
2023/03/22 04:53:37;;;;;;;19.65;7.55;;;;;;;10.99;57.06;100550.88;4972822;27;20044;-67
2023/03/22 04:56:10;;;;;;;18.30;8.07;;;;;;;10.92;56.92;100536.16;4971302;27;20060;-66
2023/03/22 04:58:43;;;;;;;20.77;8.32;;;;;;;11.00;57.24;100531.66;4970985;27;20046;-69
2023/03/22 05:01:15;;;;;;;17.05;7.28;;;;;;;10.89;56.84;100508.28;4960903;27;20433;-69
2023/03/22 05:03:46;;;;;;;19.63;8.30;;;;;;;11.09;56.93;100542.00;4971532;27;20612;-69
2023/03/22 05:06:17;;;;;;;23.85;8.52;;;;;;;11.01;56.85;100530.81;4970887;27;20058;-70
2023/03/22 05:08:47;;;;;;;18.60;7.80;;;;;;;11.09;56.71;100535.91;4970524;27;20099;-70
2023/03/22 05:11:19;;;;;;;19.13;8.45;;;;;;;10.95;57.09;100530.88;4968148;27;20096;-69
2023/03/22 05:13:51;;;;;;;18.98;8.18;;;;;;;10.97;56.61;100536.94;4967594;27;20051;-71
2023/03/22 05:16:22;;;;;;;22.55;10.13;;;;;;;10.77;57.23;100514.53;4963725;27;20090;-67
2023/03/22 05:18:53;;;;;;;17.58;9.93;;;;;;;10.92;57.20;100536.16;4969298;27;21486;-68
2023/03/22 05:21:27;;;;;;;31.30;12.77;;;;;;;10.75;56.87;100515.44;4967047;27;20107;-68
2023/03/22 05:23:58;;;;;;;26.98;12.25;;;;;;;10.54;56.37;100495.69;4966632;27;20066;-66
2023/03/22 05:26:29;;;;;;;26.88;11.90;;;;;;;10.77;56.56;100535.44;4952208;27;20172;-70
2023/03/22 05:29:00;;;;;;;26.90;9.07;;;;;;;10.80;56.50;100540.63;4952112;28;20047;-68
2023/03/22 05:31:33;;;;;;;19.58;8.45;;;;;;;10.66;56.29;100542.59;4950693;27;20085;-67
2023/03/22 05:34:04;;;;;;;20.13;10.70;;;;;;;10.42;56.85;100516.75;4951846;28;20096;-66
2023/03/22 05:36:35;;;;;;;22.50;9.35;;;;;;;10.61;56.83;100549.63;4951413;28;20048;-70
2023/03/22 05:39:06;;;;;;;23.15;10.52;;;;;;;10.67;56.71;100552.13;4949454;28;20051;-65
2023/03/22 05:41:36;;;;;;;26.00;10.32;;;;;;;10.57;56.24;100555.75;4947783;28;20055;-68
2023/03/22 05:44:08;;;;;;;35.05;13.02;;;;;;;10.57;56.58;100553.13;4952215;27;20591;-68
2023/03/22 05:46:39;;;;;;;33.75;14.73;;;;;;;10.52;56.95;100554.94;4970123;27;20039;-70
2023/03/22 05:49:09;;;;;;;27.85;9.77;;;;;;;10.46;56.55;100561.09;4970006;27;20031;-68
2023/03/22 05:51:41;;;;;;;29.35;13.18;;;;;;;10.43;57.00;100565.47;4969760;27;20035;-67
2023/03/22 05:54:12;;;;;;;31.05;11.00;;;;;;;10.46;57.08;100565.44;4966855;27;20479;-69
2023/03/22 05:56:43;;;;;;;26.23;10.05;;;;;;;10.46;57.56;100570.66;4975442;27;20047;-68
2023/03/22 05:59:15;;;;;;;31.73;12.32;;;;;;;10.44;57.63;100572.44;4970613;27;20059;-67
2023/03/22 06:01:45;;;;;;;49.15;20.05;;;;;;;10.38;57.44;100572.50;4970149;27;20065;-66
2023/03/22 06:04:17;;;;;;;35.00;12.93;;;;;;;10.34;58.35;100577.75;4970238;27;20077;-67
2023/03/22 06:06:47;;;;;;;35.10;14.10;;;;;;;10.28;58.05;100572.63;4968569;27;20466;-68
2023/03/22 06:09:18;;;;;;;40.67;15.63;;;;;;;10.27;57.70;100573.44;4967764;27;20051;-66
2023/03/22 06:11:48;;;;;;;36.58;14.35;;;;;;;10.28;58.40;100577.84;4947089;28;20116;-69
2023/03/22 06:14:20;;;;;;;23.35;9.77;;;;;;;9.96;57.81;100561.56;4947084;28;20101;-66
2023/03/22 06:16:51;;;;;;;27.52;9.55;;;;;;;10.04;58.68;100593.72;4947399;28;20044;-68
2023/03/22 06:19:21;;;;;;;20.70;8.02;;;;;;;9.88;58.31;100590.34;4947235;28;20122;-67
2023/03/22 06:21:52;;;;;;;22.13;8.18;;;;;;;9.65;58.84;100582.69;4956670;28;20069;-67
2023/03/22 06:24:22;;;;;;;17.73;7.53;;;;;;;9.64;58.88;100588.81;4955731;28;20108;-69
2023/03/22 06:26:53;;;;;;;19.27;6.82;;;;;;;9.58;59.35;100594.06;4951386;28;20045;-69
2023/03/22 06:29:25;;;;;;;20.60;7.63;;;;;;;9.67;59.58;100596.59;4950199;28;20418;-67
2023/03/22 06:31:56;;;;;;;13.95;6.00;;;;;;;9.62;59.24;100595.78;4949673;28;20047;-69
2023/03/22 06:34:26;;;;;;;14.63;6.68;;;;;;;9.56;59.39;100601.91;4951113;27;20076;-65
2023/03/22 06:36:57;;;;;;;21.15;7.07;;;;;;;9.40;59.24;100606.34;4955431;27;20051;-65
2023/03/22 06:39:28;;;;;;;13.27;6.50;;;;;;;9.28;60.24;100595.97;4949960;27;20105;-69
2023/03/22 06:41:58;;;;;;;16.13;7.68;;;;;;;9.18;60.21;100599.50;4960968;27;20095;-67
2023/03/22 06:44:30;;;;;;;19.02;7.22;;;;;;;9.02;60.56;100589.16;4964724;28;20039;-66
2023/03/22 06:47:01;;;;;;;18.10;7.18;;;;;;;8.95;61.00;100587.47;4964205;28;20062;-66
2023/03/22 06:49:31;;;;;;;19.52;7.20;;;;;;;8.99;61.72;100577.91;4961211;28;20052;-67
2023/03/22 06:52:02;;;;;;;24.15;6.57;;;;;;;8.84;61.49;100544.97;4980194;27;20052;-67
2023/03/22 06:54:32;;;;;;;17.88;6.68;;;;;;;9.02;61.65;100568.31;4977610;28;20082;-68
2023/03/22 06:57:03;;;;;;;17.05;6.68;;;;;;;9.00;61.70;100575.28;4974971;28;20051;-67
2023/03/22 06:59:35;;;;;;;21.90;6.72;;;;;;;8.89;61.55;100566.66;4972634;28;20047;-67
2023/03/22 07:02:06;;;;;;;19.90;6.75;;;;;;;8.80;61.44;100577.97;4950232;28;20446;-68
2023/03/22 07:04:37;;;;;;;27.63;7.05;;;;;;;8.79;61.92;100596.22;4947729;28;20458;-66
2023/03/22 07:07:20;;;;;;;15.18;6.88;;;;;;;8.62;61.81;100594.53;4948679;28;20106;-68
2023/03/22 07:09:51;;;;;;;24.75;7.13;;;;;;;8.51;62.29;100596.31;4940444;28;20043;-66
2023/03/22 07:12:22;;;;;;;19.92;7.18;;;;;;;8.34;62.25;100588.50;4961963;28;20061;-65
2023/03/22 07:14:54;;;;;;;22.85;7.13;;;;;;;7.67;62.96;100507.94;4969550;28;20056;-66
2023/03/22 07:17:24;;;;;;;29.50;8.40;;;;;;;8.17;63.15;100596.34;4964416;28;20043;-67
2023/03/22 07:19:55;;;;;;;20.90;7.80;;;;;;;8.13;62.93;100594.59;4965090;28;20046;-67
2023/03/22 07:22:26;;;;;;;25.15;9.13;;;;;;;8.04;63.00;100599.84;4965607;28;20068;-67
2023/03/22 07:24:57;;;;;;;19.20;7.50;;;;;;;8.00;63.11;100598.09;4964526;28;20062;-65
2023/03/22 07:27:30;;;;;;;27.10;8.27;;;;;;;7.96;63.04;100606.75;4964112;28;20031;-67
2023/03/22 07:30:02;;;;;;;27.77;9.15;;;;;;;7.94;63.54;100592.91;4964840;28;20050;-67
2023/03/22 07:32:32;;;;;;;25.20;8.82;;;;;;;7.97;63.28;100598.09;4951161;28;20049;-67
2023/03/22 07:35:03;;;;;;;20.45;8.45;;;;;;;7.86;63.10;100605.03;4949691;28;20511;-67
2023/03/22 07:37:34;;;;;;;17.73;8.20;;;;;;;7.66;62.87;100613.72;4943826;28;20419;-66
2023/03/22 07:40:05;;;;;;;21.27;9.25;;;;;;;7.53;62.89;100606.72;4945852;28;20390;-66
2023/03/22 07:42:36;;;;;;;23.33;8.60;;;;;;;7.35;63.09;100613.63;4883708;27;1772692;-64
2023/03/22 07:45:09;;;;;;;24.17;8.30;;;;;;;7.16;63.31;100606.63;4946134;28;20119;-66
2023/03/22 07:47:39;;;;;;;22.13;8.57;;;;;;;6.99;64.42;100604.00;4946132;28;20059;-66
2023/03/22 07:50:11;;;;;;;19.95;8.98;;;;;;;6.91;64.51;100595.28;4946370;28;20134;-66
2023/03/22 07:52:42;;;;;;;31.15;8.75;;;;;;;6.72;64.72;100583.97;4945904;27;20065;-65
2023/03/22 07:55:14;;;;;;;26.98;8.70;;;;;;;6.77;65.01;100608.25;4952273;28;20048;-65
2023/03/22 07:57:44;;;;;;;30.83;9.27;;;;;;;6.55;65.37;100617.63;4946113;28;20059;-64
2023/03/22 08:00:18;;;;;;;22.52;9.10;;;;;;;6.24;65.50;100598.41;4946138;27;20058;-65
2023/03/22 08:02:48;;;;;;;28.08;9.27;;;;;;;6.17;66.26;100620.00;4945947;28;20051;-64
2023/03/22 08:05:19;;;;;;;23.90;8.70;;;;;;;6.12;66.98;100626.88;4946231;28;20130;-66
2023/03/22 08:07:50;;;;;;;29.88;8.57;;;;;;;6.03;66.96;100628.53;4943432;28;22591;-65
2023/03/22 08:10:22;;;;;;;23.23;8.55;;;;;;;5.87;67.29;100626.66;4944758;28;20039;-65
2023/03/22 08:12:55;;;;;;;24.67;8.68;;;;;;;5.64;67.56;100608.25;4934956;28;20044;-65
2023/03/22 08:15:27;;;;;;;20.95;9.15;;;;;;;5.73;68.30;100633.44;4945724;28;20051;-64
2023/03/22 08:17:59;;;;;;;23.90;9.75;;;;;;;5.66;68.36;100626.44;4946017;28;20039;-66
2023/03/22 08:20:30;;;;;;;22.73;9.40;;;;;;;5.56;68.75;100626.34;4945806;28;20047;-65
2023/03/22 08:23:00;;;;;;;26.23;9.90;;;;;;;5.61;69.02;100637.63;4946626;28;20055;-65
2023/03/22 08:25:34;;;;;;;27.80;10.52;;;;;;;5.54;68.97;100643.63;4947740;28;20090;-68
2023/03/22 08:28:04;;;;;;;24.65;10.93;;;;;;;5.41;69.17;100649.50;4938602;28;20374;-65
2023/03/22 08:30:37;;;;;;;27.35;11.10;;;;;;;5.38;69.77;100646.91;4948210;28;20039;-65
2023/03/22 08:33:10;;;;;;;31.75;11.70;;;;;;;5.22;69.75;100642.38;4948748;28;20528;-65
2023/03/22 08:35:41;;;;;;;31.35;11.05;;;;;;;5.06;70.24;100639.63;4951660;28;20246;-66
2023/03/22 08:38:13;;;;;;;34.63;11.82;;;;;;;4.94;70.61;100644.66;4945169;28;20053;-65
2023/03/22 08:40:47;;;;;;;32.33;12.82;;;;;;;4.92;71.35;100646.38;4944130;28;20051;-65
2023/03/22 08:43:17;;;;;;;31.83;12.95;;;;;;;4.84;71.31;100642.78;4945475;28;20054;-65
2023/03/22 08:45:50;;;;;;;31.90;12.50;;;;;;;4.80;71.71;100651.38;4944304;28;20343;-64
2023/03/22 08:48:34;;;;;;;25.42;10.90;;;;;;;4.81;72.16;100658.28;4941133;28;20068;-65
2023/03/22 08:51:05;;;;;;;34.70;11.60;;;;;;;4.68;72.44;100652.06;4919752;28;20055;-65
2023/03/22 08:53:36;;;;;;;35.55;11.80;;;;;;;4.70;72.45;100661.59;4945366;28;20047;-64
2023/03/22 08:56:08;;;;;;;32.78;12.43;;;;;;;4.71;72.46;100655.56;4944471;28;20043;-65
2023/03/22 08:58:47;;;;;;;43.40;18.95;;;;;;;4.72;72.70;100669.41;4943361;28;20047;-66
2023/03/22 09:01:20;;;;;;;111.30;43.03;;;;;;;4.69;72.83;100665.06;4941780;27;20050;-64
2023/03/22 09:03:54;;;;;;;51.63;22.38;;;;;;;4.60;72.84;100657.16;4940187;28;20136;-63
2023/03/22 09:06:27;;;;;;;38.60;14.60;;;;;;;4.57;73.14;100654.53;4954076;28;20039;-65
2023/03/22 09:08:58;;;;;;;54.00;20.63;;;;;;;4.50;73.25;100647.53;4963210;28;20045;-63
2023/03/22 09:11:32;;;;;;;28.02;14.70;;;;;;;4.47;73.53;100647.47;4945483;28;20381;-64
2023/03/22 09:14:05;;;;;;;32.08;12.30;;;;;;;4.42;73.64;100649.09;4935002;28;20062;-65
2023/03/22 09:16:40;;;;;;;35.35;13.82;;;;;;;3.95;74.15;100579.44;4948270;28;20071;-64
2023/03/22 09:19:11;;;;;;;33.28;12.75;;;;;;;4.25;74.04;100652.31;4948245;28;20050;-65
2023/03/22 09:21:42;;;;;;;24.67;11.75;;;;;;;4.16;74.42;100657.34;4946002;28;20053;-64
2023/03/22 09:24:13;;;;;;;31.92;12.95;;;;;;;4.03;74.60;100650.25;4947466;28;20047;-64
2023/03/22 09:26:46;;;;;;;31.05;12.38;;;;;;;3.91;75.15;100662.97;4947919;28;20463;-65
2023/03/22 09:29:18;;;;;;;29.67;12.95;;;;;;;3.83;75.55;100674.03;4945853;28;20067;-63
2023/03/22 09:31:53;;;;;;;31.13;11.65;;;;;;;3.77;75.54;100668.78;4932179;28;20054;-64
2023/03/22 09:34:29;;;;;;;29.80;12.70;;;;;;;3.77;75.94;100679.09;4937653;28;20051;-64
2023/03/22 09:37:01;;;;;;;39.20;13.07;;;;;;;3.51;76.31;100642.44;4947513;28;20134;-65
2023/03/22 09:39:39;;;;;;;28.15;12.80;;;;;;;3.73;76.40;100682.47;4947996;27;20052;-65
2023/03/22 09:42:26;;;;;;;36.00;13.23;;;;;;;3.71;76.40;100684.16;4939181;28;20059;-64
2023/03/22 09:45:05;;;;;;;36.65;13.48;;;;;;;3.65;76.47;100684.06;4940371;28;20050;-63
2023/03/22 09:47:41;;;;;;;35.00;13.73;;;;;;;3.68;77.01;100679.78;4940779;27;20051;-65
2023/03/22 09:50:17;;;;;;;29.85;13.45;;;;;;;3.27;76.58;100614.47;4940862;28;20419;-64
2023/03/22 09:52:51;;;;;;;31.02;13.50;;;;;;;3.57;76.87;100659.75;4951343;27;20055;-64
2023/03/22 09:55:30;;;;;;;36.00;14.57;;;;;;;3.71;76.70;100680.69;4953208;27;20204;-64
2023/03/22 09:58:08;;;;;;;33.10;13.77;;;;;;;3.64;76.77;100671.94;4951183;27;20051;-65
2023/03/22 10:00:47;;;;;;;37.60;15.43;;;;;;;3.68;76.47;100684.09;4941498;28;20043;-63
2023/03/22 10:03:35;;;;;;;47.67;17.88;;;;;;;3.65;76.84;100699.56;4941410;27;20084;-65
2023/03/22 10:06:18;;;;;;;33.95;16.08;;;;;;;3.55;77.39;100672.66;4929550;28;20062;-64
2023/03/22 10:09:03;;;;;;;35.33;15.15;;;;;;;3.68;76.86;100691.84;4952555;27;20051;-63
2023/03/22 10:11:45;;;;;;;37.75;15.95;;;;;;;3.48;76.80;100664.78;4938051;27;20100;-63
2023/03/22 10:14:30;;;;;;;33.22;16.05;;;;;;;3.59;76.94;100689.09;4948957;27;20054;-64
2023/03/22 10:17:05;;;;;;;35.28;16.73;;;;;;;3.53;77.05;100689.00;4955184;27;20049;-64
2023/03/22 10:19:50;;;;;;;39.15;16.95;;;;;;;3.51;77.22;100690.66;4955386;27;20043;-64
2023/03/22 10:22:25;;;;;;;37.15;17.00;;;;;;;3.50;77.35;100694.97;4952281;27;20059;-64
2023/03/22 10:25:03;;;;;;;40.25;16.75;;;;;;;3.41;77.60;100711.16;4940528;27;20036;-64
2023/03/22 10:27:37;;;;;;;38.40;16.75;;;;;;;3.37;77.52;100699.03;4957953;27;20143;-64
2023/03/22 10:30:23;;;;;;;39.28;17.10;;;;;;;3.43;77.78;100698.28;4969726;27;20035;-64
2023/03/22 10:33:02;;;;;;;41.75;15.73;;;;;;;3.35;77.80;100694.69;4945490;27;20526;-64
2023/03/22 10:35:40;;;;;;;29.92;16.65;;;;;;;3.29;78.12;100700.56;4945917;27;20060;-64
2023/03/22 10:38:21;;;;;;;32.50;15.27;;;;;;;3.29;78.35;100705.72;4949600;28;20048;-63
2023/03/22 10:44:40;;;;;;;30.40;15.48;;;;;;;3.28;78.36;100704.00;4814583;28;20053;-65
2023/03/22 10:55:25;;;;;;;43.72;18.77;;;;;;;3.17;78.63;100716.69;4764484;29;20065;-64
2023/03/22 10:58:37;;;;;;;50.42;19.67;;;;;;;3.14;78.88;100715.75;4753708;29;20504;-64
2023/03/22 11:01:55;;;;;;;44.63;21.20;;;;;;;3.31;78.76;100727.31;4778756;29;20069;-64
2023/03/22 11:04:32;;;;;;;47.88;21.13;;;;;;;3.16;78.62;100724.41;4775281;29;20125;-64
2023/03/22 11:07:20;;;;;;;40.78;19.75;;;;;;;3.18;78.63;100738.22;4780946;29;20111;-64
2023/03/22 11:10:28;;;;;;;42.05;18.27;;;;;;;3.16;78.75;100739.91;4775684;29;20058;-65
2023/03/22 11:13:20;;;;;;;38.83;18.55;;;;;;;3.10;78.92;100729.44;4774582;29;22633;-64
2023/03/22 11:16:00;;;;;;;31.20;16.13;;;;;;;3.18;78.90;100733.06;4776454;29;20347;-64
2023/03/22 11:18:36;;;;;;;31.58;16.80;;;;;;;3.22;78.74;100733.16;4777234;29;20444;-64
2023/03/22 11:21:11;;;;;;;37.00;15.82;;;;;;;3.14;78.40;100737.28;4829188;28;20048;-63
2023/03/22 11:23:46;;;;;;;31.05;15.02;;;;;;;3.24;78.39;100739.25;4866388;28;20488;-65
2023/03/22 11:26:28;;;;;;;30.00;14.90;;;;;;;3.20;78.61;100715.91;4869326;28;20050;-65
2023/03/22 11:29:08;;;;;;;31.35;14.63;;;;;;;3.26;78.35;100704.81;4860517;28;20554;-64
2023/03/22 11:31:58;;;;;;;33.03;14.80;;;;;;;3.40;77.58;100724.91;4858768;28;20057;-64
2023/03/22 11:34:35;;;;;;;27.23;14.98;;;;;;;3.38;77.85;100721.41;4851673;28;20152;-64
2023/03/22 11:37:09;;;;;;;27.85;14.45;;;;;;;3.40;77.58;100724.91;4869879;28;20450;-65
2023/03/22 11:39:51;;;;;;;32.33;13.48;;;;;;;3.27;77.80;100699.69;4858960;28;20059;-64
2023/03/22 11:42:36;;;;;;;33.97;14.05;;;;;;;3.37;77.67;100718.78;4858333;28;20052;-65
2023/03/22 11:45:08;;;;;;;29.17;13.38;;;;;;;3.36;77.51;100720.50;4857139;28;20218;-64
2023/03/22 11:47:39;;;;;;;27.65;13.27;;;;;;;3.05;77.97;100674.25;4869714;28;20480;-65
2023/03/22 11:50:29;;;;;;;30.75;14.55;;;;;;;3.32;77.73;100713.56;4868476;28;20049;-64
2023/03/22 11:53:02;;;;;;;;;;;;;;;3.27;77.75;100707.44;4857899;28;20059;-65
2023/03/22 11:55:36;;;;;;;25.83;14.05;;;;;;;3.31;77.94;100709.22;4858885;28;19929;-65
2023/03/22 11:58:27;;;;;;;28.95;15.07;;;;;;;2.93;77.93;100641.31;4869536;28;20061;-65
2023/03/22 12:01:02;;;;;;;31.58;16.05;;;;;;;3.18;78.41;100707.25;4857706;28;20240;-64
2023/03/22 12:03:37;;;;;;;34.60;15.85;;;;;;;3.19;78.35;100703.81;4863972;28;20850;-64
2023/03/22 12:06:21;;;;;;;32.42;14.23;;;;;;;3.15;78.57;100696.84;4870363;28;20045;-65
2023/03/22 12:08:56;;;;;;;31.92;15.23;;;;;;;3.23;78.48;100700.47;4855845;28;20054;-64